createdAt,value
2023-01-18T00:00:35.422Z,98265.97
2023-01-18T00:03:03.314Z,98269.47
2023-01-18T00:05:31.451Z,98277.25
2023-01-18T00:08:00.638Z,98269.47
2023-01-18T00:10:28.605Z,98278.13
2023-01-18T00:12:56.995Z,98279.81
2023-01-18T00:15:25.015Z,98271.16
2023-01-18T00:17:52.927Z,98258.06
2023-01-18T00:20:23.395Z,98265.09
2023-01-18T00:22:52.302Z,98245.06
2023-01-18T00:25:24.054Z,98243.28
2023-01-18T00:27:53.540Z,98262.44
2023-01-18T00:30:24.027Z,98259.81
2023-01-18T00:32:56.037Z,98204.13
2023-01-18T00:35:25.006Z,98254.59
2023-01-18T00:37:54.361Z,98237.19
2023-01-18T00:40:28.445Z,98249.38
2023-01-18T00:43:18.890Z,98253.69
2023-01-18T00:45:47.010Z,98254.53
2023-01-18T00:48:14.879Z,98263.16
2023-01-18T00:50:42.713Z,98256.22
2023-01-18T00:53:10.787Z,98271.75
2023-01-18T00:55:39.977Z,98268.25
2023-01-18T00:58:07.870Z,98276.84
2023-01-18T01:00:35.926Z,98278.56
2023-01-18T01:03:03.786Z,98246.31
2023-01-18T01:05:49.110Z,98292.31
2023-01-18T01:08:17.956Z,98286.25
2023-01-18T01:10:48.894Z,98283.63
2023-01-18T01:13:36.275Z,98287.94
2023-01-18T01:16:24.032Z,98293.03
2023-01-18T01:19:09.955Z,98303.31
2023-01-18T01:21:55.271Z,98293.72
2023-01-18T01:24:40.698Z,98294.53
2023-01-18T01:27:10.725Z,98277.13
2023-01-18T01:29:38.755Z,98263.97
2023-01-18T01:32:07.131Z,98288.38
2023-01-18T01:34:36.032Z,98289.22
2023-01-18T01:37:04.267Z,98283.13
2023-01-18T01:39:32.222Z,98294.25
2023-01-18T01:42:00.119Z,98273.16
2023-01-18T01:44:56.596Z,98299.28
2023-01-18T01:47:33.515Z,98307.88
2023-01-18T01:50:07.963Z,98313.94
2023-01-18T01:52:39.135Z,98313.06
2023-01-18T01:55:13.201Z,98204.16
2023-01-18T01:57:47.939Z,98314.78
2023-01-18T02:00:20.325Z,98324.28
2023-01-18T02:02:52.558Z,98316.34
2023-01-18T02:05:21.163Z,98313.03
2023-01-18T02:07:49.664Z,98321.59
2023-01-18T02:10:18.068Z,98314.75
2023-01-18T02:12:49.350Z,98303.22
2023-01-18T02:15:20.196Z,98282.50
2023-01-18T02:18:02.268Z,98288.53
2023-01-18T02:20:56.197Z,98331.19
2023-01-18T02:23:35.110Z,98339.03
2023-01-18T02:26:41.556Z,98349.41
2023-01-18T02:29:17.508Z,98305.66
2023-01-18T02:31:58.118Z,98377.84
2023-01-18T02:34:34.462Z,98377.78
2023-01-18T02:37:07.686Z,98388.13
2023-01-18T02:39:42.432Z,98379.25
2023-01-18T02:42:36.843Z,98395.88
2023-01-18T02:45:42.657Z,98400.16
2023-01-18T02:48:11.538Z,98394.81
2023-01-18T02:50:39.582Z,98419.13
2023-01-18T02:53:07.496Z,98418.25
2023-01-18T02:55:42.916Z,98420.81
2023-01-18T02:58:17.531Z,98434.59
2023-01-18T03:00:51.335Z,98432.81
2023-01-18T03:03:22.439Z,98427.63
2023-01-18T03:05:52.638Z,98437.84
2023-01-18T03:08:27.377Z,98401.81
2023-01-18T03:11:01.732Z,98367.66
2023-01-18T03:13:42.795Z,98449.53
2023-01-18T03:16:19.735Z,98436.44
2023-01-18T03:19:03.757Z,98452.66
2023-01-18T03:21:51.508Z,98455.97
2023-01-18T03:24:20.562Z,98456.69
2023-01-18T03:26:54.241Z,98462.66
2023-01-18T03:29:41.446Z,98479.03
2023-01-18T03:32:32.145Z,98481.47
2023-01-18T03:35:07.818Z,98494.31
2023-01-18T03:37:38.958Z,98482.78
2023-01-18T03:40:12.004Z,98495.00
2023-01-18T03:42:46.348Z,98508.78
2023-01-18T03:45:20.579Z,98514.78
2023-01-18T03:47:51.166Z,98520.00
2023-01-18T03:50:20.450Z,98526.09
2023-01-18T03:52:52.570Z,98527.03
2023-01-18T03:55:25.424Z,98523.66
2023-01-18T03:57:57.125Z,98530.59
2023-01-18T04:00:25.703Z,98534.97
2023-01-18T04:02:55.065Z,98537.63
2023-01-18T04:05:23.190Z,98543.66
2023-01-18T04:07:51.686Z,98555.72
2023-01-18T04:10:19.772Z,98554.00
2023-01-18T04:12:47.740Z,98537.34
2023-01-18T04:15:15.935Z,98551.34
2023-01-18T04:17:43.816Z,98557.28
2023-01-18T04:20:13.735Z,98542.31
2023-01-18T04:22:41.669Z,98564.88
2023-01-18T04:25:10.314Z,98558.72
2023-01-18T04:27:38.290Z,98555.13
2023-01-18T04:30:07.181Z,98569.63
2023-01-18T04:32:36.330Z,98573.16
2023-01-18T04:35:04.284Z,98519.78
2023-01-18T04:37:34.219Z,98588.56
2023-01-18T04:40:02.178Z,98579.06
2023-01-18T04:42:30.669Z,98589.53
2023-01-18T04:44:59.898Z,98552.88
2023-01-18T04:47:29.045Z,98593.84
2023-01-18T04:49:57.583Z,98607.63
2023-01-18T04:52:26.911Z,98603.31
2023-01-18T04:54:56.215Z,98611.19
2023-01-18T04:57:24.225Z,98612.09
2023-01-18T04:59:52.194Z,98616.53
2023-01-18T05:02:20.237Z,98625.22
2023-01-18T05:04:48.191Z,98611.34
2023-01-18T05:07:16.180Z,98636.72
2023-01-18T05:09:44.041Z,98632.47
2023-01-18T05:12:13.351Z,98606.34
2023-01-18T05:14:41.260Z,98633.47
2023-01-18T05:17:09.085Z,98624.81
2023-01-18T05:19:37.039Z,98637.88
2023-01-18T05:22:04.926Z,98632.75
2023-01-18T05:24:32.827Z,98638.78
2023-01-18T05:27:00.763Z,98626.47
2023-01-18T05:29:30.038Z,98642.25
2023-01-18T05:31:57.873Z,98637.72
2023-01-18T05:34:27.366Z,98636.75
2023-01-18T05:36:55.395Z,98669.66
2023-01-18T05:39:23.673Z,98608.25
2023-01-18T05:41:51.718Z,98666.84
2023-01-18T05:44:19.630Z,98667.56
2023-01-18T05:46:48.842Z,98662.00
2023-01-18T05:49:16.943Z,98695.84
2023-01-18T05:51:45.014Z,98696.72
2023-01-18T05:54:13.344Z,98697.53
2023-01-18T05:56:42.226Z,98696.53
2023-01-18T05:59:10.304Z,98708.50
2023-01-18T06:01:38.228Z,98642.84
2023-01-18T06:04:07.786Z,98711.03
2023-01-18T06:06:35.897Z,98723.19
2023-01-18T06:09:04.050Z,98728.31
2023-01-18T06:11:32.134Z,98735.97
2023-01-18T06:14:00.212Z,98740.22
2023-01-18T06:16:28.088Z,98744.44
2023-01-18T06:18:55.993Z,98739.09
2023-01-18T06:21:25.295Z,98718.47
2023-01-18T06:23:53.208Z,98675.56
2023-01-18T06:26:21.146Z,98743.69
2023-01-18T06:28:49.077Z,98754.19
2023-01-18T06:31:17.045Z,98751.31
2023-01-18T06:33:45.490Z,98767.81
2023-01-18T06:36:13.438Z,98774.66
2023-01-18T06:38:42.669Z,98768.47
2023-01-18T06:41:10.757Z,98789.22
2023-01-18T06:43:38.672Z,98789.13
2023-01-18T06:46:08.207Z,98782.13
2023-01-18T06:48:36.594Z,98797.72
2023-01-18T06:51:04.728Z,98792.31
2023-01-18T06:53:32.576Z,98800.25
2023-01-18T06:56:02.980Z,98785.13
2023-01-18T06:58:32.829Z,98781.63
2023-01-18T07:01:02.075Z,98784.25
2023-01-18T07:03:31.595Z,98819.19
2023-01-18T07:06:01.458Z,98824.34
2023-01-18T07:08:31.436Z,98812.91
2023-01-18T07:11:05.065Z,98833.75
2023-01-18T07:13:33.156Z,98805.56
2023-01-18T07:16:02.089Z,98819.41
2023-01-18T07:18:31.391Z,98814.94
2023-01-18T07:21:00.963Z,98841.81
2023-01-18T07:23:29.484Z,98862.75
2023-01-18T07:26:03.023Z,98847.75
2023-01-18T07:28:31.971Z,98873.84
2023-01-18T07:31:00.438Z,98883.25
2023-01-18T07:33:29.153Z,98879.63
2023-01-18T07:35:58.802Z,98864.63
2023-01-18T07:38:27.368Z,98886.66
2023-01-18T07:41:02.432Z,98883.78
2023-01-18T07:43:32.071Z,98887.38
2023-01-18T07:46:00.711Z,98892.44
2023-01-18T07:48:29.402Z,98882.91
2023-01-18T07:50:58.869Z,98848.50
2023-01-18T07:53:27.933Z,98907.03
2023-01-18T07:55:59.750Z,98883.13
2023-01-18T07:58:28.621Z,98925.19
2023-01-18T08:01:03.971Z,98922.72
2023-01-18T08:03:31.978Z,98926.31
2023-01-18T08:06:00.770Z,98932.47
2023-01-18T08:08:29.201Z,98930.63
2023-01-18T08:10:57.864Z,98945.53
2023-01-18T08:13:27.482Z,98947.28
2023-01-18T08:15:57.403Z,98958.66
2023-01-18T08:18:25.366Z,98957.91
2023-01-18T08:20:55.142Z,98961.63
2023-01-18T08:23:23.462Z,98875.84
2023-01-18T08:25:52.159Z,98955.09
2023-01-18T08:28:20.318Z,98952.31
2023-01-18T08:30:49.522Z,98954.13
2023-01-18T08:33:18.853Z,98945.53
2023-01-18T08:35:48.411Z,98979.72
2023-01-18T08:38:17.801Z,98963.97
2023-01-18T08:40:45.766Z,98973.66
2023-01-18T08:43:13.754Z,98984.06
2023-01-18T08:45:41.655Z,99000.88
2023-01-18T08:48:11.936Z,98998.56
2023-01-18T08:50:43.027Z,98996.91
2023-01-18T08:53:10.943Z,99009.97
2023-01-18T08:55:38.866Z,99006.84
2023-01-18T08:58:07.077Z,99017.34
2023-01-18T09:00:35.113Z,99013.19
2023-01-18T09:03:03.648Z,99030.47
2023-01-18T09:05:31.981Z,99036.13
2023-01-18T09:08:01.861Z,99038.81
2023-01-18T09:10:29.681Z,99038.63
2023-01-18T09:12:58.043Z,99048.94
2023-01-18T09:15:27.046Z,99044.56
2023-01-18T09:17:54.846Z,99055.09
2023-01-18T09:20:22.851Z,99053.28
2023-01-18T09:22:50.757Z,99025.16
2023-01-18T09:25:20.752Z,99041.63
2023-01-18T09:27:48.714Z,99048.31
2023-01-18T09:30:17.242Z,99044.59
2023-01-18T09:32:45.144Z,99042.78
2023-01-18T09:35:18.150Z,99051.34
2023-01-18T09:37:46.550Z,99038.16
2023-01-18T09:40:21.227Z,99048.66
2023-01-18T09:42:51.619Z,99050.50
2023-01-18T09:45:30.620Z,99045.16
2023-01-18T09:48:03.536Z,99057.34
2023-01-18T09:50:34.452Z,99046.63
2023-01-18T09:53:16.439Z,99064.41
2023-01-18T09:55:54.165Z,99067.09
2023-01-18T09:58:43.377Z,99074.03
2023-01-18T10:01:16.123Z,99075.75
2023-01-18T10:03:55.719Z,99065.34
2023-01-18T10:06:28.420Z,98952.97
2023-01-18T10:09:01.825Z,99078.47
2023-01-18T10:11:43.510Z,99038.31
2023-01-18T10:14:19.004Z,99073.69
2023-01-18T10:16:55.524Z,99062.66
2023-01-18T10:19:27.785Z,99072.34
2023-01-18T10:21:59.743Z,99056.63
2023-01-18T10:24:46.525Z,99071.50
2023-01-18T10:27:40.311Z,98961.28
2023-01-18T10:30:29.249Z,99074.53
2023-01-18T10:33:00.720Z,99095.28
2023-01-18T10:35:32.571Z,99075.50
2023-01-18T10:38:04.012Z,99069.34
2023-01-18T10:40:31.968Z,99081.69
2023-01-18T10:43:04.478Z,99042.16
2023-01-18T10:45:34.590Z,99100.78
2023-01-18T10:48:28.212Z,99094.84
2023-01-18T10:50:57.900Z,99030.97
2023-01-18T10:53:32.755Z,99074.00
2023-01-18T10:56:06.310Z,99101.16
2023-01-18T10:58:45.297Z,99095.00
2023-01-18T11:01:18.102Z,99076.50
2023-01-18T11:03:48.897Z,99106.22
2023-01-18T11:06:19.305Z,99102.75
2023-01-18T11:08:48.084Z,99105.25
2023-01-18T11:11:19.839Z,99096.53
2023-01-18T11:13:50.711Z,99099.06
2023-01-18T11:16:21.002Z,99096.44
2023-01-18T11:19:03.776Z,99106.78
2023-01-18T11:21:46.304Z,99119.69
2023-01-18T11:24:17.688Z,99073.00
2023-01-18T11:26:55.570Z,99121.44
2023-01-18T11:29:28.588Z,99115.50
2023-01-18T11:32:01.977Z,99095.53
2023-01-18T11:34:31.517Z,99126.25
2023-01-18T11:37:01.777Z,99122.97
2023-01-18T11:39:32.664Z,99131.75
2023-01-18T11:42:22.545Z,99130.09
2023-01-18T11:45:00.898Z,99129.22
2023-01-18T11:47:35.790Z,99126.56
2023-01-18T11:50:21.248Z,99131.75
2023-01-18T11:52:54.770Z,99120.44
2023-01-18T11:55:31.579Z,99107.13
2023-01-18T11:58:01.118Z,99123.09
2023-01-18T12:00:41.480Z,99113.38
2023-01-18T12:03:25.569Z,99101.00
2023-01-18T12:05:59.148Z,99135.19
2023-01-18T12:08:40.911Z,99133.31
2023-01-18T12:11:31.251Z,99121.53
2023-01-18T12:14:03.585Z,99136.50
2023-01-18T12:16:51.722Z,99116.59
2023-01-18T12:19:34.898Z,99069.44
2023-01-18T12:22:35.312Z,99138.22
2023-01-18T12:25:21.786Z,99139.38
2023-01-18T12:27:58.236Z,99136.13
2023-01-18T12:30:46.702Z,99136.38
2023-01-18T12:33:42.538Z,99136.63
2023-01-18T12:36:30.188Z,99136.72
2023-01-18T12:38:58.418Z,99124.56
2023-01-18T12:41:52.218Z,99142.75
2023-01-18T12:44:49.307Z,99139.28
2023-01-18T12:47:36.584Z,99141.09
2023-01-18T12:50:13.951Z,99107.84
2023-01-18T12:52:47.765Z,99140.25
2023-01-18T12:55:21.453Z,99135.84
2023-01-18T12:57:54.078Z,99133.22
2023-01-18T13:00:27.473Z,99146.03
2023-01-18T13:03:00.412Z,99151.72
2023-01-18T13:05:36.115Z,99124.16
2023-01-18T13:08:09.233Z,99152.47
2023-01-18T13:10:38.599Z,99162.50
2023-01-18T13:13:08.276Z,99160.41
2023-01-18T13:15:43.841Z,99165.38
2023-01-18T13:18:17.943Z,99155.69
2023-01-18T13:20:59.717Z,99160.84
2023-01-18T13:23:37.436Z,99164.22
2023-01-18T13:26:20.605Z,99170.28
2023-01-18T13:28:48.754Z,99170.19
2023-01-18T13:31:16.851Z,99181.31
2023-01-18T13:33:46.749Z,99176.19
2023-01-18T13:36:21.350Z,99182.13
2023-01-18T13:38:51.897Z,99181.19
2023-01-18T13:41:24.821Z,99172.16
2023-01-18T13:44:07.765Z,99182.78
2023-01-18T13:46:39.445Z,99195.66
2023-01-18T13:49:37.771Z,99171.13
2023-01-18T13:52:30.640Z,99194.63
2023-01-18T13:55:04.568Z,99204.22
2023-01-18T13:57:34.677Z,99203.34
2023-01-18T14:00:03.425Z,99185.69
2023-01-18T14:02:35.913Z,99208.47
2023-01-18T14:05:08.710Z,99205.84
2023-01-18T14:07:44.392Z,99187.34
2023-01-18T14:10:27.326Z,99205.84
2023-01-18T14:12:57.329Z,99216.22
2023-01-18T14:15:30.659Z,99221.38
2023-01-18T14:17:59.592Z,99206.34
2023-01-18T14:20:49.930Z,99215.84
2023-01-18T14:23:51.476Z,99237.72
2023-01-18T14:26:21.000Z,99241.19
2023-01-18T14:28:53.063Z,99235.97
2023-01-18T14:31:29.151Z,99230.75
2023-01-18T14:33:57.436Z,99238.53
2023-01-18T14:36:27.064Z,99241.94
2023-01-18T14:39:14.978Z,99243.66
2023-01-18T14:41:45.082Z,99253.13
2023-01-18T14:44:18.170Z,99204.78
2023-01-18T14:46:51.199Z,99249.66
2023-01-18T14:49:25.210Z,99244.44
2023-01-18T14:51:54.564Z,99242.63
2023-01-18T14:54:26.145Z,99243.97
2023-01-18T14:57:02.473Z,99254.28
2023-01-18T14:59:32.377Z,99248.88
2023-01-18T15:02:02.975Z,99255.53
2023-01-18T15:04:33.078Z,99235.25
2023-01-18T15:07:04.805Z,99261.25
2023-01-18T15:09:37.521Z,99262.81
2023-01-18T15:12:08.632Z,99155.31
2023-01-18T15:14:43.226Z,99272.81
2023-01-18T15:17:21.352Z,99267.50
2023-01-18T15:19:53.207Z,99268.13
2023-01-18T15:22:25.929Z,99246.78
2023-01-18T15:24:59.133Z,99274.13
2023-01-18T15:27:30.496Z,99263.50
2023-01-18T15:30:00.322Z,99273.81
2023-01-18T15:32:30.897Z,99279.75
2023-01-18T15:35:02.520Z,99271.69
2023-01-18T15:37:33.778Z,99138.59
2023-01-18T15:40:06.996Z,99294.00
2023-01-18T15:42:38.940Z,99316.34
2023-01-18T15:45:18.011Z,99297.91
2023-01-18T15:47:50.031Z,99288.94
2023-01-18T15:50:20.519Z,99317.72
2023-01-18T15:52:54.033Z,99310.78
2023-01-18T15:55:34.848Z,99280.91
2023-01-18T15:58:05.736Z,99303.69
2023-01-18T16:00:38.829Z,99302.56
2023-01-18T16:03:06.904Z,99299.06
2023-01-18T16:05:34.846Z,99156.22
2023-01-18T16:08:22.949Z,99263.41
2023-01-18T16:10:57.556Z,99271.31
2023-01-18T16:13:33.206Z,99314.25
2023-01-18T16:16:20.315Z,99320.94
2023-01-18T16:18:51.829Z,99310.38
2023-01-18T16:21:27.539Z,99310.22
2023-01-18T16:23:57.989Z,99331.84
2023-01-18T16:26:31.499Z,99327.44
2023-01-18T16:29:07.842Z,99336.06
2023-01-18T16:31:39.820Z,99314.88
2023-01-18T16:34:20.927Z,99337.66
2023-01-18T16:36:49.334Z,99348.75
2023-01-18T16:39:17.200Z,99339.19
2023-01-18T16:41:53.306Z,99346.88
2023-01-18T16:44:22.191Z,99340.72
2023-01-18T16:46:50.841Z,99344.13
2023-01-18T16:49:18.854Z,99350.94
2023-01-18T16:51:47.558Z,99351.69
2023-01-18T16:54:15.734Z,99343.88
2023-01-18T16:56:46.135Z,99219.59
2023-01-18T16:59:21.729Z,99360.09
2023-01-18T17:01:50.266Z,99338.94
2023-01-18T17:04:18.609Z,99358.22
2023-01-18T17:06:46.510Z,99361.56
2023-01-18T17:09:23.624Z,99363.28
2023-01-18T17:11:51.936Z,99364.09
2023-01-18T17:14:22.282Z,99369.25
2023-01-18T17:16:50.784Z,99370.66
2023-01-18T17:19:21.475Z,99376.00
2023-01-18T17:21:50.180Z,99383.63
2023-01-18T17:24:20.670Z,99338.69
2023-01-18T17:26:48.622Z,99381.06
2023-01-18T17:29:18.679Z,99393.91
2023-01-18T17:31:52.871Z,99335.81
2023-01-18T17:34:27.812Z,99394.59
2023-01-18T17:36:58.680Z,99398.84
2023-01-18T17:39:42.428Z,99371.38
2023-01-18T17:42:19.237Z,99390.06
2023-01-18T17:44:50.606Z,99390.84
2023-01-18T17:47:20.027Z,99378.69
2023-01-18T17:49:47.847Z,99390.72
2023-01-18T17:52:15.744Z,99396.56
2023-01-18T17:54:43.761Z,99397.28
2023-01-18T17:57:11.832Z,99396.38
2023-01-18T17:59:39.731Z,99390.09
2023-01-18T18:02:07.634Z,99391.66
2023-01-18T18:04:37.175Z,99391.53
2023-01-18T18:07:05.236Z,99405.47
2023-01-18T18:09:38.186Z,99373.59
2023-01-18T18:12:06.807Z,99410.50
2023-01-18T18:14:35.164Z,99408.66
2023-01-18T18:17:03.532Z,99351.16
2023-01-18T18:19:32.439Z,99412.13
2023-01-18T18:22:04.630Z,99419.00
2023-01-18T18:24:32.689Z,99419.75
2023-01-18T18:27:02.120Z,99380.00
2023-01-18T18:29:31.159Z,99428.31
2023-01-18T18:31:59.327Z,99434.22
2023-01-18T18:34:27.477Z,99437.56
2023-01-18T18:36:55.409Z,99436.63
2023-01-18T18:39:24.814Z,99420.66
2023-01-18T18:41:53.039Z,99444.09
2023-01-18T18:44:20.973Z,99443.16
2023-01-18T18:46:49.090Z,99440.44
2023-01-18T18:49:17.084Z,99435.91
2023-01-18T18:51:45.059Z,99444.59
2023-01-18T18:54:13.393Z,99442.50
2023-01-18T18:56:43.043Z,99454.78
2023-01-18T18:59:11.127Z,99460.81
2023-01-18T19:01:39.107Z,99420.22
2023-01-18T19:04:07.057Z,99465.84
2023-01-18T19:06:35.544Z,99441.63
2023-01-18T19:09:05.413Z,99458.59
2023-01-18T19:11:33.851Z,99476.97
2023-01-18T19:14:04.302Z,99476.97
2023-01-18T19:16:32.180Z,99478.63
2023-01-18T19:19:00.012Z,99477.72
2023-01-18T19:21:28.321Z,99482.81
2023-01-18T19:23:56.302Z,99480.19
2023-01-18T19:26:24.134Z,99412.22
2023-01-18T19:28:52.197Z,99483.63
2023-01-18T19:31:21.472Z,99469.66
2023-01-18T19:33:49.533Z,99482.56
2023-01-18T19:36:17.810Z,99460.69
2023-01-18T19:38:52.552Z,99478.28
2023-01-18T19:41:24.821Z,99464.22
2023-01-18T19:43:52.702Z,99466.06
2023-01-18T19:46:22.385Z,99465.16
2023-01-18T19:48:50.398Z,99458.13
2023-01-18T19:51:22.907Z,99385.63
2023-01-18T19:53:51.605Z,99470.41
2023-01-18T19:56:19.509Z,99472.09
2023-01-18T19:58:47.461Z,99465.03
2023-01-18T20:01:30.242Z,99463.41
2023-01-18T20:04:04.415Z,99460.63
2023-01-18T20:06:32.581Z,99432.44
2023-01-18T20:09:00.539Z,99462.31
2023-01-18T20:11:28.403Z,99458.78
2023-01-18T20:13:57.002Z,99447.09
2023-01-18T20:16:25.098Z,99461.22
2023-01-18T20:18:52.970Z,99466.41
2023-01-18T20:21:22.560Z,99418.72
2023-01-18T20:23:50.669Z,99466.25
2023-01-18T20:26:34.825Z,99460.88
2023-01-18T20:29:06.539Z,99467.88
2023-01-18T20:31:36.342Z,99471.13
2023-01-18T20:34:05.191Z,99453.41
2023-01-18T20:36:36.792Z,99416.94
2023-01-18T20:39:05.802Z,99466.59
2023-01-18T20:41:33.668Z,99453.22
2023-01-18T20:44:01.701Z,99468.94
2023-01-18T20:46:29.695Z,99462.09
2023-01-18T20:48:57.593Z,99459.53
2023-01-18T20:51:25.611Z,99459.53
2023-01-18T20:53:54.909Z,99404.66
2023-01-18T20:56:29.290Z,99402.91
2023-01-18T20:58:58.105Z,99411.59
2023-01-18T21:01:31.637Z,99459.91
2023-01-18T21:04:01.249Z,99466.91
2023-01-18T21:06:29.866Z,99442.66
2023-01-18T21:09:00.382Z,99473.56
2023-01-18T21:11:29.353Z,99480.47
2023-01-18T21:13:59.994Z,99468.09
2023-01-18T21:16:28.656Z,99482.16
2023-01-18T21:18:59.137Z,99485.56
2023-01-18T21:21:29.395Z,99465.91
2023-01-18T21:23:57.386Z,99493.97
2023-01-18T21:26:26.741Z,99486.09
2023-01-18T21:28:54.755Z,99491.09
2023-01-18T21:31:23.100Z,99498.75
2023-01-18T21:33:51.196Z,99455.50
2023-01-18T21:36:20.159Z,99494.28
2023-01-18T21:38:48.164Z,99493.38
2023-01-18T21:41:34.670Z,99473.38
2023-01-18T21:44:21.624Z,99484.63
2023-01-18T21:46:51.332Z,99486.09
2023-01-18T21:49:54.907Z,99490.22
2023-01-18T21:52:46.727Z,99447.81
2023-01-18T21:55:16.355Z,99467.31
2023-01-18T21:57:44.388Z,99478.97
2023-01-18T22:00:14.750Z,99486.69
2023-01-18T22:02:42.746Z,99485.00
2023-01-18T22:05:10.924Z,99469.09
2023-01-18T22:07:38.847Z,99485.97
2023-01-18T22:10:07.458Z,99485.97
2023-01-18T22:12:36.511Z,99491.94
2023-01-18T22:15:05.259Z,99490.00
2023-01-18T22:17:34.614Z,99483.09
2023-01-18T22:20:02.507Z,99496.78
2023-01-18T22:22:30.456Z,99493.31
2023-01-18T22:25:00.204Z,99494.22
2023-01-18T22:27:28.359Z,99489.88
2023-01-18T22:29:56.331Z,99479.16
2023-01-18T22:32:24.284Z,99500.97
2023-01-18T22:34:53.752Z,99509.53
2023-01-18T22:37:21.851Z,99462.00
2023-01-18T22:39:50.499Z,99496.38
2023-01-18T22:42:19.016Z,99483.34
2023-01-18T22:44:47.059Z,99513.34
2023-01-18T22:47:15.106Z,99511.72
2023-01-18T22:49:42.923Z,99515.13
2023-01-18T22:52:12.255Z,99513.50
2023-01-18T22:54:40.199Z,99499.50
2023-01-18T22:57:08.054Z,99508.41
2023-01-18T22:59:36.020Z,99513.50
2023-01-18T23:02:03.967Z,99509.22
2023-01-18T23:04:34.400Z,99508.41
2023-01-18T23:07:02.459Z,99504.81
2023-01-18T23:09:32.193Z,99513.66
2023-01-18T23:12:00.089Z,99488.91
2023-01-18T23:14:45.630Z,99517.91
2023-01-18T23:17:31.280Z,99516.22
2023-01-18T23:19:59.212Z,99518.78
2023-01-18T23:22:27.609Z,99481.44
2023-01-18T23:24:56.830Z,99518.66
2023-01-18T23:27:25.269Z,99511.81
2023-01-18T23:29:57.235Z,99527.28
2023-01-18T23:32:28.128Z,99520.28
2023-01-18T23:34:56.201Z,99533.09
2023-01-18T23:37:24.620Z,99510.72
2023-01-18T23:40:09.776Z,99542.28
2023-01-18T23:42:56.608Z,99486.50
2023-01-18T23:45:41.880Z,99542.09
2023-01-18T23:48:29.602Z,99528.25
2023-01-18T23:51:14.793Z,99541.06
2023-01-18T23:54:00.433Z,99506.81
2023-01-18T23:56:29.136Z,99519.13
2023-01-18T23:58:58.867Z,99528.03
